Time;durP1;ratioP1;P1;durP2;ratioP2;P2;SDS_P1;SDS_P2;PMS_P1;PMS_P2;Temp;Humidity;BMP_temperature;BMP_pressure;BME280_temperature;BME280_humidity;BME280_pressure;Samples;Min_cycle;Max_cycle;Signal;HPM_P1;HPM_P2
2023/04/15 00:00:25;;;;;;;8.40;7.77;;;11.50;22.00;;;;;;5019499;28;20943;-79
2023/04/15 00:02:51;;;;;;;8.10;7.60;;;11.50;21.90;;;;;;5021036;28;20204;-78
2023/04/15 00:05:17;;;;;;;9.03;8.27;;;11.50;21.70;;;;;;5018895;28;20205;-80
2023/04/15 00:07:44;;;;;;;8.27;7.77;;;11.50;21.70;;;;;;5003056;28;20417;-79
2023/04/15 00:10:10;;;;;;;8.90;8.20;;;11.40;21.70;;;;;;5015207;28;20193;-80
2023/04/15 00:12:35;;;;;;;9.63;8.80;;;11.50;21.80;;;;;;5011411;28;20420;-77
2023/04/15 00:15:01;;;;;;;9.13;8.53;;;11.40;21.90;;;;;;5017151;28;20174;-78
2023/04/15 00:17:27;;;;;;;9.00;8.40;;;11.40;21.80;;;;;;5016281;28;20181;-78
2023/04/15 00:19:53;;;;;;;9.67;8.97;;;11.40;22.10;;;;;;5012746;28;20204;-81
2023/04/15 00:22:19;;;;;;;9.07;8.47;;;11.40;22.00;;;;;;5012389;28;20638;-78
2023/04/15 00:24:44;;;;;;;9.10;8.50;;;11.40;22.00;;;;;;5009479;28;20416;-75
2023/04/15 00:27:10;;;;;;;10.00;9.33;;;11.30;21.70;;;;;;5011534;28;20174;-81
2023/04/15 00:29:36;;;;;;;9.50;8.80;;;11.30;22.10;;;;;;5006321;28;20212;-78
2023/04/15 00:32:01;;;;;;;9.93;9.33;;;11.30;22.00;;;;;;5007120;28;20184;-76
2023/04/15 00:34:27;;;;;;;9.17;8.40;;;11.40;22.00;;;;;;5008476;28;20169;-79
2023/04/15 00:36:53;;;;;;;8.70;8.20;;;11.30;22.10;;;;;;5006444;28;20666;-80
2023/04/15 00:39:19;;;;;;;9.20;8.40;;;11.30;22.00;;;;;;5006613;28;20439;-79
2023/04/15 00:41:45;;;;;;;10.27;9.27;;;11.30;21.90;;;;;;5008932;28;20240;-81
2023/04/15 00:44:10;;;;;;;9.77;9.10;;;11.30;22.00;;;;;;5005246;28;20199;-77
2023/04/15 00:46:38;;;;;;;9.00;8.50;;;11.30;21.80;;;;;;5005200;28;20217;-76
2023/04/15 00:49:05;;;;;;;9.40;8.80;;;11.30;22.00;;;;;;5006918;28;20272;-80
2023/04/15 00:51:32;;;;;;;10.40;9.40;;;11.20;21.90;;;;;;5005900;28;20925;-79
2023/04/15 00:53:59;;;;;;;9.63;9.00;;;11.20;22.10;;;;;;5009383;28;20421;-80
2023/04/15 00:56:25;;;;;;;9.73;9.03;;;11.10;22.20;;;;;;5008743;28;20412;-76
2023/04/15 00:58:51;;;;;;;11.33;10.27;;;11.20;22.30;;;;;;5007742;28;20421;-80
2023/04/15 01:01:21;;;;;;;9.57;8.87;;;11.20;22.20;;;;;;5006639;28;20838;-80
2023/04/15 01:03:49;;;;;;;10.87;10.20;;;11.10;22.30;;;;;;5006248;28;20185;-79
2023/04/15 01:06:15;;;;;;;10.50;9.50;;;11.00;22.40;;;;;;5006537;28;20466;-79
2023/04/15 01:08:41;;;;;;;11.50;10.90;;;11.00;22.30;;;;;;5005259;28;20503;-80
2023/04/15 01:11:07;;;;;;;10.73;9.93;;;10.90;22.30;;;;;;5008251;28;20846;-78
2023/04/15 01:13:33;;;;;;;10.30;9.57;;;10.50;23.50;;;;;;5009774;28;20185;-80
2023/04/15 01:15:59;;;;;;;10.37;9.30;;;10.10;24.10;;;;;;5010961;28;20849;-80
2023/04/15 01:18:26;;;;;;;10.80;10.00;;;9.90;25.50;;;;;;5008532;28;20417;-78
2023/04/15 01:20:52;;;;;;;9.70;9.17;;;9.60;26.10;;;;;;5010223;28;20536;-80
2023/04/15 01:23:17;;;;;;;11.17;10.27;;;9.50;26.80;;;;;;5013215;28;20444;-80
2023/04/15 01:25:44;;;;;;;11.13;10.47;;;9.70;26.40;;;;;;5006926;28;20456;-78
2023/04/15 01:28:09;;;;;;;10.00;9.30;;;10.00;25.10;;;;;;5007186;28;20615;-80
2023/04/15 01:30:35;;;;;;;9.93;9.17;;;10.20;24.70;;;;;;5007502;28;20507;-78
2023/04/15 01:33:01;;;;;;;10.03;9.43;;;10.20;24.90;;;;;;5006077;28;20169;-81
2023/04/15 01:35:27;;;;;;;9.90;9.30;;;10.40;24.20;;;;;;5008458;28;20212;-81
2023/04/15 01:37:53;;;;;;;10.60;9.70;;;10.50;23.90;;;;;;5002613;28;20787;-80
2023/04/15 01:40:20;;;;;;;9.63;9.00;;;10.50;23.50;;;;;;5010694;28;20213;-81
2023/04/15 01:42:45;;;;;;;9.87;9.27;;;10.60;23.60;;;;;;5014824;28;20444;-79
2023/04/15 01:45:12;;;;;;;10.57;9.97;;;10.60;23.60;;;;;;5010742;28;20602;-79
2023/04/15 01:47:38;;;;;;;10.93;10.13;;;10.60;23.60;;;;;;5012730;28;20186;-77
2023/04/15 01:50:04;;;;;;;10.40;9.60;;;10.60;23.60;;;;;;5013409;28;20464;-76
2023/04/15 01:52:31;;;;;;;10.93;10.00;;;10.70;23.70;;;;;;5010274;28;20694;-76
2023/04/15 01:54:56;;;;;;;10.40;9.57;;;10.70;23.50;;;;;;5009537;28;20845;-79
2023/04/15 01:57:22;;;;;;;10.07;9.37;;;10.70;23.40;;;;;;5006925;28;20428;-80
2023/04/15 01:59:47;;;;;;;9.00;8.50;;;10.70;23.40;;;;;;5006340;28;20204;-80
2023/04/15 02:02:13;;;;;;;10.07;9.23;;;10.70;23.40;;;;;;5010278;28;20189;-80
2023/04/15 02:04:38;;;;;;;10.00;9.40;;;10.70;23.30;;;;;;5005979;28;20199;-77
2023/04/15 02:07:04;;;;;;;10.57;9.87;;;10.70;23.40;;;;;;5007947;28;20660;-80
2023/04/15 02:09:30;;;;;;;10.57;9.83;;;10.70;23.20;;;;;;5006790;28;20530;-81
2023/04/15 02:11:55;;;;;;;9.90;9.10;;;10.70;23.20;;;;;;5010703;28;20260;-81
2023/04/15 02:14:21;;;;;;;10.40;9.60;;;10.70;23.10;;;;;;5007160;28;20173;-80
2023/04/15 02:16:46;;;;;;;10.43;9.73;;;10.70;23.00;;;;;;5004562;28;20181;-80
2023/04/15 02:19:12;;;;;;;9.57;9.03;;;10.70;23.00;;;;;;5009381;28;20228;-81
2023/04/15 02:21:38;;;;;;;10.07;9.30;;;10.60;22.80;;;;;;5003074;28;20177;-77
2023/04/15 02:24:04;;;;;;;9.37;8.77;;;10.60;22.90;;;;;;5006302;28;20965;-80
2023/04/15 02:26:31;;;;;;;9.40;8.80;;;10.60;23.00;;;;;;5009364;28;20524;-79
2023/04/15 02:28:57;;;;;;;9.73;9.10;;;10.60;22.80;;;;;;5010508;28;20253;-79
2023/04/15 02:31:23;;;;;;;10.07;9.30;;;10.60;22.80;;;;;;5002436;28;20436;-79
2023/04/15 02:33:49;;;;;;;10.57;9.67;;;10.50;22.60;;;;;;5002697;28;20409;-80
2023/04/15 02:36:15;;;;;;;10.03;9.40;;;10.60;22.80;;;;;;5004033;28;20471;-78
2023/04/15 02:38:41;;;;;;;10.23;9.53;;;10.60;22.80;;;;;;5002400;28;20599;-81
2023/04/15 02:41:11;;;;;;;11.20;10.50;;;10.60;22.90;;;;;;5002365;28;20197;-77
2023/04/15 02:43:38;;;;;;;9.77;9.07;;;10.50;23.10;;;;;;5002643;28;20424;-81
2023/04/15 02:46:04;;;;;;;10.67;9.80;;;10.60;23.20;;;;;;5004205;28;20460;-80
2023/04/15 02:48:30;;;;;;;10.40;9.70;;;10.60;23.50;;;;;;5007886;28;20891;-80
2023/04/15 02:51:18;;;;;;;10.20;9.40;;;10.70;23.60;;;;;;5001752;28;20448;-81
2023/04/15 02:53:44;;;;;;;10.17;9.50;;;10.50;23.50;;;;;;5003850;28;20177;-79
2023/04/15 02:56:10;;;;;;;10.10;9.50;;;10.50;23.50;;;;;;5002130;28;20511;-80
2023/04/15 02:58:36;;;;;;;10.77;10.07;;;10.50;23.50;;;;;;5004424;28;20443;-79
2023/04/15 03:01:02;;;;;;;10.97;10.27;;;10.50;23.50;;;;;;5003897;28;20515;-81
2023/04/15 03:03:27;;;;;;;9.90;9.23;;;10.30;23.40;;;;;;5002062;28;20247;-81
2023/04/15 03:05:53;;;;;;;11.00;10.20;;;9.80;24.90;;;;;;5001420;28;20216;-81
2023/04/15 03:08:20;;;;;;;10.40;9.80;;;9.50;26.20;;;;;;5000001;28;20523;-77
2023/04/15 03:10:46;;;;;;;12.07;11.27;;;9.30;26.90;;;;;;5001834;28;20271;-80
2023/04/15 03:13:12;;;;;;;10.30;9.80;;;9.40;26.90;;;;;;4997559;28;20444;-80
2023/04/15 03:15:37;;;;;;;11.30;10.47;;;9.50;26.50;;;;;;5000475;28;20459;-76
2023/04/15 03:18:03;;;;;;;10.90;10.10;;;9.70;26.10;;;;;;4996565;28;20494;-80
2023/04/15 03:20:28;;;;;;;10.90;10.13;;;9.80;25.80;;;;;;4996196;28;20232;-78
2023/04/15 03:22:54;;;;;;;10.03;9.43;;;10.00;24.70;;;;;;4998074;28;21229;-76
2023/04/15 03:25:20;;;;;;;10.30;9.63;;;10.00;24.40;;;;;;4999248;28;20292;-81
2023/04/15 03:27:45;;;;;;;10.33;9.40;;;10.00;24.50;;;;;;5004555;28;20173;-81
2023/04/15 03:30:12;;;;;;;10.17;9.47;;;10.10;24.20;;;;;;5005111;28;20500;-79
2023/04/15 03:32:38;;;;;;;10.73;10.13;;;10.10;24.20;;;;;;4998003;28;20229;-79
2023/04/15 03:35:03;;;;;;;9.77;9.07;;;10.20;23.80;;;;;;5008161;28;20521;-78
2023/04/15 03:37:29;;;;;;;10.53;9.73;;;10.30;23.50;;;;;;5009671;28;20434;-78
2023/04/15 03:39:55;;;;;;;10.10;9.47;;;10.40;23.50;;;;;;5010790;28;20563;-77
2023/04/15 03:42:20;;;;;;;11.17;10.33;;;10.30;23.30;;;;;;5010606;28;20207;-78
2023/04/15 03:44:46;;;;;;;10.77;9.97;;;10.20;23.30;;;;;;5011523;28;20447;-79
2023/04/15 03:47:12;;;;;;;10.43;9.70;;;10.10;23.30;;;;;;5012126;28;20196;-79
2023/04/15 03:49:37;;;;;;;10.17;9.40;;;9.90;25.50;;;;;;5013000;28;20197;-78
2023/04/15 03:52:03;;;;;;;10.43;9.53;;;10.00;24.10;;;;;;5013027;28;20189;-78
2023/04/15 03:54:29;;;;;;;10.10;9.50;;;10.20;23.60;;;;;;5016450;28;20181;-78
2023/04/15 03:56:55;;;;;;;8.87;8.47;;;10.30;23.40;;;;;;5019719;28;20177;-78
2023/04/15 03:59:21;;;;;;;9.30;8.60;;;10.40;23.50;;;;;;5024834;28;20194;-78
2023/04/15 04:01:46;;;;;;;9.70;9.07;;;10.40;23.50;;;;;;5035125;28;20427;-83
2023/04/15 04:04:12;;;;;;;10.10;9.30;;;10.50;23.20;;;;;;5038167;28;20166;-81
2023/04/15 04:06:38;;;;;;;11.03;10.23;;;10.50;23.20;;;;;;5037682;28;20196;-84
2023/04/15 04:09:03;;;;;;;11.03;10.13;;;10.50;23.00;;;;;;5036669;28;20193;-81
2023/04/15 04:11:29;;;;;;;10.53;9.70;;;10.50;23.10;;;;;;5036189;28;20432;-83
2023/04/15 04:13:54;;;;;;;10.10;9.40;;;10.50;23.50;;;;;;5036382;28;20174;-81
2023/04/15 04:16:20;;;;;;;10.57;9.90;;;10.50;23.30;;;;;;5025771;28;20227;-77
2023/04/15 04:18:45;;;;;;;9.87;9.27;;;10.60;23.00;;;;;;5013150;28;20181;-76
2023/04/15 04:21:11;;;;;;;9.87;8.97;;;10.60;23.90;;;;;;5014070;28;20184;-78
2023/04/15 04:23:36;;;;;;;8.90;8.40;;;10.50;23.00;;;;;;5014679;28;20201;-80
2023/04/15 04:26:02;;;;;;;9.47;8.73;;;10.50;22.40;;;;;;5015725;28;20287;-77
2023/04/15 04:28:28;;;;;;;9.70;8.90;;;10.60;22.30;;;;;;5008886;28;20189;-78
2023/04/15 04:30:53;;;;;;;7.97;7.57;;;10.60;21.60;;;;;;5010478;28;20237;-78
2023/04/15 04:33:19;;;;;;;8.73;8.33;;;10.00;21.90;;;;;;5011068;28;20186;-76
2023/04/15 04:35:45;;;;;;;9.30;8.60;;;9.70;23.70;;;;;;5012756;28;20480;-77
2023/04/15 04:38:10;;;;;;;9.63;9.00;;;9.50;23.60;;;;;;5014131;28;20544;-78
2023/04/15 04:40:36;;;;;;;8.97;8.57;;;9.40;23.50;;;;;;5012138;28;20812;-77
2023/04/15 04:43:02;;;;;;;9.07;8.53;;;9.20;25.20;;;;;;5010057;28;20181;-77
2023/04/15 04:45:27;;;;;;;8.73;8.03;;;9.30;25.10;;;;;;5012478;28;20209;-79
2023/04/15 04:47:53;;;;;;;9.67;9.13;;;9.50;24.80;;;;;;5012683;28;20188;-77
2023/04/15 04:50:18;;;;;;;9.90;9.30;;;9.60;24.40;;;;;;5012557;28;20344;-77
2023/04/15 04:52:44;;;;;;;10.23;9.63;;;9.70;24.40;;;;;;5012739;28;20185;-77
2023/04/15 04:55:10;;;;;;;10.00;9.30;;;9.90;24.20;;;;;;5012993;28;20192;-80
2023/04/15 04:57:36;;;;;;;9.60;9.10;;;10.00;23.20;;;;;;5014092;28;20177;-77
2023/04/15 05:00:03;;;;;;;10.83;10.10;;;10.10;23.30;;;;;;5014226;28;20194;-80
2023/04/15 05:02:29;;;;;;;10.20;9.33;;;10.10;23.30;;;;;;5013847;28;20446;-76
2023/04/15 05:04:55;;;;;;;11.03;10.23;;;10.20;23.30;;;;;;5013557;28;20503;-77
2023/04/15 05:07:21;;;;;;;10.10;9.47;;;10.20;23.30;;;;;;5014140;28;20408;-77
2023/04/15 05:09:46;;;;;;;11.60;8.67;;;10.20;23.30;;;;;;5013566;28;20440;-77
2023/04/15 05:12:13;;;;;;;9.83;9.23;;;10.20;23.30;;;;;;5013844;28;20196;-77
2023/04/15 05:14:40;;;;;;;9.00;8.40;;;10.20;23.10;;;;;;5013925;28;20170;-77
2023/04/15 05:17:07;;;;;;;10.10;9.53;;;10.20;22.90;;;;;;5013785;28;20452;-77
2023/04/15 05:19:32;;;;;;;8.90;8.47;;;10.00;22.70;;;;;;5012436;28;20452;-78
2023/04/15 05:21:58;;;;;;;9.43;8.83;;;9.90;23.90;;;;;;5013498;28;21012;-77
2023/04/15 05:24:24;;;;;;;9.00;8.50;;;10.00;23.20;;;;;;5013871;28;20207;-77
2023/04/15 05:26:49;;;;;;;9.67;9.00;;;9.90;23.60;;;;;;5012420;28;20683;-77
2023/04/15 05:29:15;;;;;;;9.90;9.10;;;9.90;23.90;;;;;;5011537;28;20516;-77
2023/04/15 05:31:41;;;;;;;9.13;8.47;;;9.90;23.70;;;;;;5011953;28;20181;-80
2023/04/15 05:34:07;;;;;;;10.00;9.30;;;10.00;22.90;;;;;;5013536;28;20169;-77
2023/04/15 05:36:32;;;;;;;9.77;9.27;;;10.10;22.90;;;;;;5013297;28;20439;-76
2023/04/15 05:38:58;;;;;;;10.50;9.90;;;10.10;23.30;;;;;;5013805;28;20216;-77
2023/04/15 05:41:23;;;;;;;11.03;10.33;;;10.10;23.30;;;;;;5012285;28;20185;-77
2023/04/15 05:43:49;;;;;;;10.27;9.67;;;10.00;23.20;;;;;;5013101;28;20177;-76
2023/04/15 05:46:15;;;;;;;10.90;10.03;;;9.90;24.50;;;;;;5013357;28;20213;-77
2023/04/15 05:48:40;;;;;;;10.80;9.93;;;9.70;24.70;;;;;;5012064;28;20550;-76
2023/04/15 05:51:06;;;;;;;11.23;10.60;;;9.60;24.60;;;;;;5013204;28;20899;-78
2023/04/15 05:53:31;;;;;;;10.27;9.33;;;9.40;25.30;;;;;;5011993;28;20177;-77
2023/04/15 05:55:57;;;;;;;9.93;9.33;;;9.40;25.60;;;;;;5013247;28;20263;-78
2023/04/15 05:58:22;;;;;;;10.60;10.00;;;9.40;26.40;;;;;;5011777;28;20283;-77
2023/04/15 06:00:48;;;;;;;11.17;10.47;;;9.30;26.00;;;;;;5011788;28;20216;-79
2023/04/15 06:03:14;;;;;;;9.87;9.20;;;9.50;26.90;;;;;;5011150;28;20260;-77
2023/04/15 06:05:39;;;;;;;10.63;9.83;;;9.60;27.40;;;;;;5012928;28;20288;-76
2023/04/15 06:08:05;;;;;;;9.93;9.23;;;9.80;26.80;;;;;;5011353;28;20551;-76
2023/04/15 06:10:35;;;;;;;10.63;9.93;;;9.90;25.40;;;;;;5012083;28;20243;-77
2023/04/15 06:13:02;;;;;;;9.70;9.20;;;10.10;23.50;;;;;;5010971;28;20169;-78
2023/04/15 06:15:27;;;;;;;10.17;9.47;;;10.10;23.30;;;;;;5011287;28;20423;-76
2023/04/15 06:17:53;;;;;;;10.00;9.30;;;10.30;22.80;;;;;;5010908;28;20864;-77
2023/04/15 06:20:19;;;;;;;10.03;9.33;;;10.30;23.10;;;;;;5010758;28;20197;-79
2023/04/15 06:22:44;;;;;;;10.37;9.67;;;10.30;23.20;;;;;;5009784;28;20264;-77
2023/04/15 06:25:10;;;;;;;10.57;9.97;;;10.30;23.20;;;;;;5012258;28;20855;-76
2023/04/15 06:27:36;;;;;;;10.00;9.30;;;10.40;23.00;;;;;;5011971;28;20184;-78
2023/04/15 06:30:02;;;;;;;11.17;10.17;;;10.40;22.80;;;;;;5012413;28;20201;-77
2023/04/15 06:32:27;;;;;;;10.50;10.00;;;10.40;22.40;;;;;;5011659;28;20524;-76
2023/04/15 06:34:53;;;;;;;10.10;9.50;;;10.50;22.40;;;;;;5012318;28;20469;-80
2023/04/15 06:37:18;;;;;;;9.30;8.50;;;10.50;22.00;;;;;;5012890;28;20667;-76
2023/04/15 06:39:44;;;;;;;9.70;9.20;;;10.40;21.60;;;;;;5011482;28;20251;-77
2023/04/15 06:42:10;;;;;;;9.50;8.90;;;10.20;22.30;;;;;;5012106;28;20212;-78
2023/04/15 06:44:37;;;;;;;9.50;8.90;;;10.30;22.30;;;;;;5012091;28;20188;-76
2023/04/15 06:47:02;;;;;;;10.20;9.60;;;10.30;22.30;;;;;;5012373;28;20893;-77
2023/04/15 06:49:28;;;;;;;10.73;9.93;;;10.20;22.70;;;;;;5012336;28;20463;-76
2023/04/15 06:51:54;;;;;;;11.23;10.50;;;10.10;23.30;;;;;;5027311;28;20447;-78
2023/04/15 06:54:20;;;;;;;13.70;12.70;;;10.00;23.20;;;;;;5012088;28;20173;-78
2023/04/15 06:56:46;;;;;;;12.17;11.17;;;10.00;23.20;;;;;;5010900;28;20441;-78
2023/04/15 06:59:13;;;;;;;11.90;11.10;;;10.00;23.60;;;;;;5011400;28;20193;-78
2023/04/15 07:01:40;;;;;;;13.47;12.33;;;10.00;23.20;;;;;;5011468;28;20419;-77
2023/04/15 07:04:05;;;;;;;12.57;11.50;;;9.90;24.50;;;;;;5010616;28;20420;-77
2023/04/15 07:06:31;;;;;;;13.20;12.13;;;9.90;24.90;;;;;;5010387;28;20460;-78
2023/04/15 07:08:57;;;;;;;12.60;11.63;;;9.80;25.10;;;;;;5010474;28;20656;-76
2023/04/15 07:11:24;;;;;;;12.87;11.97;;;9.80;25.30;;;;;;5010216;28;20487;-76
2023/04/15 07:13:49;;;;;;;11.67;10.87;;;9.90;25.20;;;;;;5011811;28;20169;-77
2023/04/15 07:16:15;;;;;;;12.00;11.30;;;9.90;25.50;;;;;;5011843;28;21053;-77
2023/04/15 07:18:41;;;;;;;11.93;11.30;;;10.00;24.30;;;;;;5010486;28;20178;-77
2023/04/15 07:21:06;;;;;;;12.13;11.33;;;9.90;24.80;;;;;;5011138;28;20200;-79
2023/04/15 07:23:32;;;;;;;11.80;11.00;;;9.90;24.80;;;;;;5011728;28;20596;-76
2023/04/15 07:25:57;;;;;;;12.27;11.30;;;10.00;24.10;;;;;;5011719;28;20197;-76
2023/04/15 07:28:23;;;;;;;11.30;10.30;;;10.20;24.60;;;;;;5010404;28;20264;-78
2023/04/15 07:30:48;;;;;;;11.63;10.50;;;10.30;23.40;;;;;;5011676;28;20208;-77
2023/04/15 07:33:14;;;;;;;11.47;10.57;;;10.40;23.40;;;;;;5012911;28;20200;-76
2023/04/15 07:35:40;;;;;;;12.00;10.97;;;10.40;23.40;;;;;;5011648;28;20188;-77
2023/04/15 07:38:05;;;;;;;11.63;10.73;;;10.50;23.30;;;;;;5011991;28;20419;-77
2023/04/15 07:40:31;;;;;;;13.32;12.02;;;10.50;22.80;;;;;;5009527;28;20415;-78
2023/04/15 07:42:57;;;;;;;11.50;10.80;;;10.60;23.00;;;;;;5011510;28;20189;-75
2023/04/15 07:45:23;;;;;;;10.80;10.10;;;10.80;22.90;;;;;;5011326;28;20316;-76
2023/04/15 07:47:49;;;;;;;10.90;10.20;;;10.90;22.50;;;;;;5012099;28;20412;-77
2023/04/15 07:50:16;;;;;;;12.07;11.10;;;10.90;21.80;;;;;;5012022;28;20570;-76
2023/04/15 07:52:42;;;;;;;10.97;10.20;;;10.80;22.30;;;;;;5011469;28;20909;-78
2023/04/15 07:55:08;;;;;;;11.47;10.67;;;10.80;21.40;;;;;;5010588;28;20483;-76
2023/04/15 07:57:35;;;;;;;12.50;11.60;;;10.90;22.00;;;;;;5011770;28;20636;-76
2023/04/15 08:00:01;;;;;;;12.27;11.33;;;11.10;22.00;;;;;;5011269;28;20582;-78
2023/04/15 08:02:27;;;;;;;12.00;11.20;;;11.10;22.10;;;;;;5010702;28;20899;-76
2023/04/15 08:04:52;;;;;;;15.77;10.60;;;11.20;21.30;;;;;;5009686;28;20424;-75
2023/04/15 08:07:18;;;;;;;11.10;10.37;;;11.10;21.60;;;;;;5010086;28;20280;-76
2023/04/15 08:09:45;;;;;;;11.10;10.30;;;11.00;21.50;;;;;;5013641;28;20256;-76
2023/04/15 08:12:12;;;;;;;11.83;10.93;;;10.90;21.80;;;;;;5010270;28;20279;-75
2023/04/15 08:14:38;;;;;;;12.17;11.37;;;10.90;22.40;;;;;;5012398;28;20495;-77
2023/04/15 08:17:04;;;;;;;12.10;11.30;;;10.80;22.50;;;;;;5015427;28;20420;-76
2023/04/15 08:19:30;;;;;;;12.53;11.57;;;10.90;22.80;;;;;;5015680;28;20471;-75
2023/04/15 08:21:56;;;;;;;11.47;10.77;;;10.90;22.50;;;;;;5014407;28;20420;-76
2023/04/15 08:24:22;;;;;;;12.23;11.33;;;10.90;22.60;;;;;;5013195;28;20196;-76
2023/04/15 08:26:47;;;;;;;10.67;9.70;;;11.10;22.60;;;;;;5014501;28;20463;-77
2023/04/15 08:29:13;;;;;;;12.70;11.50;;;11.10;22.60;;;;;;5013068;28;20672;-76
2023/04/15 08:31:38;;;;;;;11.43;10.50;;;11.30;22.30;;;;;;5014264;28;20182;-78
2023/04/15 08:34:04;;;;;;;10.80;10.10;;;11.30;22.20;;;;;;5013252;28;20184;-75
2023/04/15 08:36:31;;;;;;;12.70;11.63;;;11.30;22.00;;;;;;5013806;28;20181;-76
2023/04/15 08:38:56;;;;;;;10.63;9.87;;;11.40;22.00;;;;;;5013814;28;20192;-75
2023/04/15 08:41:24;;;;;;;10.90;9.93;;;11.50;21.50;;;;;;5012457;28;20424;-78
2023/04/15 08:43:57;;;;;;;10.83;10.03;;;11.60;21.50;;;;;;5013821;28;20196;-74
2023/04/15 08:46:22;;;;;;;10.63;9.93;;;11.70;21.10;;;;;;4993980;28;20579;-76
2023/04/15 08:48:49;;;;;;;10.70;9.80;;;11.90;20.90;;;;;;4994801;28;20512;-77
2023/04/15 08:51:16;;;;;;;9.90;9.20;;;12.00;20.40;;;;;;4994513;28;20570;-75
2023/04/15 08:53:45;;;;;;;11.30;10.40;;;12.20;22.00;;;;;;5000807;28;20427;-75
2023/04/15 08:56:14;;;;;;;11.80;11.00;;;12.40;21.20;;;;;;5014543;28;20441;-76
2023/04/15 08:58:40;;;;;;;12.00;10.93;;;12.60;21.00;;;;;;5013276;28;20412;-76
2023/04/15 09:01:06;;;;;;;10.97;10.23;;;12.70;20.30;;;;;;5012886;28;20432;-75
2023/04/15 09:03:33;;;;;;;10.13;9.33;;;12.80;19.70;;;;;;5012751;28;20430;-77
2023/04/15 09:05:59;;;;;;;7.80;7.40;;;13.00;19.40;;;;;;5012904;28;20460;-76
2023/04/15 09:08:24;;;;;;;8.13;7.53;;;13.20;18.50;;;;;;5011499;28;20524;-75
2023/04/15 09:10:50;;;;;;;6.90;6.30;;;13.30;16.40;;;;;;5012890;28;20201;-75
2023/04/15 09:13:17;;;;;;;8.30;7.70;;;13.30;15.90;;;;;;5011780;28;20647;-74
2023/04/15 09:15:43;;;;;;;8.33;7.77;;;13.40;16.40;;;;;;5012382;28;20177;-74
2023/04/15 09:18:11;;;;;;;8.07;7.60;;;13.50;16.10;;;;;;5013586;28;20976;-74
2023/04/15 09:20:41;;;;;;;9.20;8.60;;;13.60;16.10;;;;;;5013477;28;20240;-74
2023/04/15 09:23:14;;;;;;;8.93;8.13;;;13.80;16.50;;;;;;5013535;28;20416;-75
2023/04/15 09:25:44;;;;;;;8.67;8.17;;;14.00;16.10;;;;;;5013651;28;20471;-74
2023/04/15 09:28:10;;;;;;;8.40;7.90;;;14.10;15.80;;;;;;5012052;28;20420;-74
2023/04/15 09:30:36;;;;;;;8.67;8.27;;;14.30;14.80;;;;;;5013799;28;20431;-75
2023/04/15 09:33:28;;;;;;;8.40;7.87;;;14.40;14.60;;;;;;5069115;23;20488;-77
2023/04/15 09:44:09;;;;;;;8.27;7.67;;;14.30;13.30;;;;;;4980788;28;20426;-77
2023/04/15 09:47:12;;;;;;;8.17;7.77;;;14.30;13.90;;;;;;5031925;28;20851;-76
2023/04/15 09:50:06;;;;;;;7.40;7.00;;;14.30;13.90;;;;;;5025425;28;20919;-77
2023/04/15 09:53:05;;;;;;;;;;;;;;;;;;;;;
2023/04/15 09:55:41;;;;;;;8.93;8.13;;;14.30;13.60;;;;;;5032948;28;20509;-76
2023/04/15 09:58:26;;;;;;;8.83;8.23;;;14.20;13.90;;;;;;5033019;28;20399;-76
2023/04/15 10:00:59;;;;;;;8.40;7.63;;;14.20;14.40;;;;;;5032931;28;20407;-76
2023/04/15 10:03:41;;;;;;;7.50;6.90;;;14.20;14.40;;;;;;5031371;28;20443;-76
2023/04/15 10:06:17;;;;;;;7.40;6.70;;;14.20;14.00;;;;;;5031741;28;20462;-76
2023/04/15 10:08:59;;;;;;;7.07;6.67;;;14.30;13.80;;;;;;5031833;28;20883;-76
2023/04/15 10:11:36;;;;;;;7.00;6.60;;;14.30;13.60;;;;;;5030935;28;20423;-75
2023/04/15 10:14:05;;;;;;;7.50;7.10;;;14.30;13.70;;;;;;5033222;28;20423;-75
2023/04/15 10:16:32;;;;;;;6.63;6.17;;;14.30;13.60;;;;;;5031348;28;20921;-74
2023/04/15 10:19:01;;;;;;;6.60;6.20;;;14.30;13.60;;;;;;5032942;28;20447;-75
2023/04/15 10:21:27;;;;;;;7.50;7.10;;;14.40;13.60;;;;;;5032263;28;20443;-75
2023/04/15 10:23:53;;;;;;;7.23;6.90;;;14.40;12.70;;;;;;5032789;28;20463;-75
2023/04/15 10:26:19;;;;;;;7.37;6.87;;;14.30;12.20;;;;;;5032617;28;20505;-75
2023/04/15 10:28:48;;;;;;;7.47;7.07;;;14.30;12.20;;;;;;5032941;28;20403;-75
2023/04/15 10:31:14;;;;;;;8.17;7.67;;;14.20;12.20;;;;;;5031232;28;20169;-77
2023/04/15 10:33:41;;;;;;;8.20;7.60;;;14.20;13.00;;;;;;5032220;28;20459;-75
2023/04/15 10:36:07;;;;;;;8.03;7.53;;;14.20;14.10;;;;;;5032268;28;20408;-76
2023/04/15 10:38:41;;;;;;;8.67;7.90;;;14.30;14.30;;;;;;5029900;28;20416;-76
2023/04/15 10:41:20;;;;;;;8.50;8.00;;;14.40;13.40;;;;;;5031497;28;20429;-75
2023/04/15 10:44:03;;;;;;;8.87;8.33;;;14.40;13.60;;;;;;5033060;28;20430;-76
2023/04/15 10:46:41;;;;;;;8.70;8.20;;;14.50;12.70;;;;;;5032863;28;20458;-76
2023/04/15 10:49:12;;;;;;;9.97;8.80;;;14.40;13.20;;;;;;5032942;28;20460;-76
2023/04/15 10:51:43;;;;;;;8.57;7.93;;;14.50;13.40;;;;;;5032136;28;20411;-76
2023/04/15 10:54:13;;;;;;;8.53;7.83;;;14.40;14.00;;;;;;5032447;28;20435;-75
2023/04/15 10:56:44;;;;;;;9.97;9.20;;;14.60;13.90;;;;;;5046902;28;20513;-76
2023/04/15 10:59:10;;;;;;;9.10;8.60;;;14.50;13.70;;;;;;5052621;28;20735;-76
2023/04/15 11:02:00;;;;;;;8.20;7.80;;;14.50;13.30;;;;;;5051262;28;20433;-75
2023/04/15 11:04:54;;;;;;;7.80;7.33;;;14.40;12.30;;;;;;5039797;28;20427;-75
2023/04/15 11:07:39;;;;;;;8.67;8.07;;;14.40;12.80;;;;;;5029799;28;20488;-75
2023/04/15 11:10:25;;;;;;;7.43;7.03;;;14.30;13.10;;;;;;5032169;28;20403;-74
2023/04/15 11:12:55;;;;;;;8.70;8.20;;;14.30;13.10;;;;;;5019230;28;20429;-76
2023/04/15 11:15:33;;;;;;;7.80;7.40;;;14.30;13.10;;;;;;5030282;28;20411;-77
2023/04/15 11:18:17;;;;;;;8.83;8.37;;;14.20;12.70;;;;;;5031663;28;20413;-76
2023/04/15 11:20:50;;;;;;;8.33;7.50;;;14.20;13.50;;;;;;5031565;28;20408;-76
2023/04/15 11:23:26;;;;;;;9.83;7.47;;;14.20;13.90;;;;;;5031017;28;20434;-77
2023/04/15 11:25:54;;;;;;;8.40;7.83;;;14.30;13.60;;;;;;5031896;28;20968;-75
2023/04/15 11:28:20;;;;;;;8.00;7.37;;;14.40;13.10;;;;;;5031537;28;20758;-75
2023/04/15 11:30:47;;;;;;;7.83;7.23;;;14.40;12.00;;;;;;5031632;28;20411;-76
2023/04/15 11:33:12;;;;;;;8.67;8.20;;;14.40;12.20;;;;;;5030664;28;20201;-75
2023/04/15 11:35:41;;;;;;;8.67;8.10;;;14.50;12.20;;;;;;5031252;28;20430;-77
2023/04/15 11:38:12;;;;;;;8.60;8.00;;;14.60;11.90;;;;;;5032257;28;20177;-76
2023/04/15 11:40:38;;;;;;;8.77;8.17;;;14.50;12.80;;;;;;5028661;28;20972;-76
2023/04/15 11:43:15;;;;;;;7.57;7.17;;;14.30;13.50;;;;;;5030049;28;20522;-75
2023/04/15 11:45:56;;;;;;;10.53;9.83;;;14.30;13.80;;;;;;5030277;28;20451;-76
2023/04/15 11:48:27;;;;;;;10.00;9.20;;;14.40;13.90;;;;;;5030225;28;20433;-75
2023/04/15 11:50:57;;;;;;;10.50;9.90;;;14.40;14.20;;;;;;5031012;28;20411;-76
2023/04/15 11:53:23;;;;;;;11.03;10.13;;;14.30;14.90;;;;;;5034086;28;20965;-77
2023/04/15 11:55:52;;;;;;;9.60;8.90;;;14.20;15.40;;;;;;5033315;28;20474;-75
2023/04/15 11:58:22;;;;;;;11.90;10.80;;;14.10;15.70;;;;;;5035198;28;20415;-77
2023/04/15 12:00:53;;;;;;;11.67;10.77;;;14.10;15.70;;;;;;5033931;28;20441;-75
2023/04/15 12:03:22;;;;;;;8.93;8.20;;;14.20;15.60;;;;;;5034868;28;20438;-75
2023/04/15 12:06:20;;;;;;;11.90;11.00;;;14.20;15.70;;;;;;5035645;28;20961;-75
2023/04/15 12:08:54;;;;;;;10.40;9.70;;;14.20;16.00;;;;;;5014844;28;20396;-75
2023/04/15 12:11:26;;;;;;;9.63;9.10;;;14.30;15.40;;;;;;5013966;28;20415;-75
2023/04/15 12:13:57;;;;;;;9.43;8.73;;;14.40;15.60;;;;;;5015128;28;20428;-76
2023/04/15 12:16:23;;;;;;;10.63;9.83;;;14.40;15.00;;;;;;5015125;28;20407;-76
2023/04/15 12:18:57;;;;;;;11.70;10.47;;;14.40;13.30;;;;;;5014992;28;20424;-76
2023/04/15 12:21:31;;;;;;;9.70;9.20;;;14.50;13.40;;;;;;5014686;28;20411;-76
2023/04/15 12:24:00;;;;;;;9.27;8.77;;;14.40;13.30;;;;;;5031605;28;21006;-77
2023/04/15 12:26:28;;;;;;;9.53;8.93;;;14.40;13.40;;;;;;5034105;28;20844;-76
2023/04/15 12:28:56;;;;;;;8.83;8.40;;;14.40;13.60;;;;;;5034903;28;20718;-76
2023/04/15 12:31:22;;;;;;;8.83;8.40;;;14.50;14.60;;;;;;5035050;28;20435;-77
2023/04/15 12:33:48;;;;;;;7.87;7.47;;;14.40;15.30;;;;;;5033070;28;20491;-77
2023/04/15 12:36:17;;;;;;;8.83;8.43;;;14.30;16.70;;;;;;5033033;28;20502;-76
2023/04/15 12:38:42;;;;;;;9.97;9.37;;;14.10;17.70;;;;;;5033595;28;20854;-76
2023/04/15 12:41:08;;;;;;;9.20;8.50;;;13.90;18.20;;;;;;5033285;28;20396;-76
2023/04/15 12:43:33;;;;;;;9.30;8.90;;;13.80;19.60;;;;;;5033428;28;20250;-77
2023/04/15 12:45:59;;;;;;;10.07;9.47;;;13.60;20.60;;;;;;5032639;28;20204;-77
2023/04/15 12:48:25;;;;;;;9.63;9.03;;;13.50;21.50;;;;;;5035013;28;20169;-77
2023/04/15 12:50:50;;;;;;;9.23;8.83;;;13.40;22.90;;;;;;5034741;28;20179;-78